createdAt,value
2017-08-11T00:00:08.069Z,1012.78
2017-08-11T00:01:16.973Z,1012.73
2017-08-11T00:02:25.872Z,1012.69
2017-08-11T00:03:34.771Z,1012.67
2017-08-11T00:04:43.679Z,1012.72
2017-08-11T00:05:52.587Z,1012.76
2017-08-11T00:07:02.127Z,1012.73
2017-08-11T00:08:11.049Z,1012.7
2017-08-11T00:09:19.946Z,1012.64
2017-08-11T00:10:28.846Z,1012.59
2017-08-11T00:11:37.754Z,1012.61
2017-08-11T00:12:46.984Z,1012.62
2017-08-11T00:13:55.879Z,1012.69
2017-08-11T00:15:04.793Z,1012.74
2017-08-11T00:16:13.697Z,1012.72
2017-08-11T00:17:22.596Z,1012.66
2017-08-11T00:18:31.550Z,1012.54
2017-08-11T00:19:40.452Z,1012.54
2017-08-11T00:20:49.351Z,1012.5
2017-08-11T00:21:58.251Z,1012.46
2017-08-11T00:23:07.162Z,1012.4
2017-08-11T00:24:16.081Z,1012.34
2017-08-11T00:25:24.984Z,1012.22
2017-08-11T00:26:33.886Z,1012.26
2017-08-11T00:27:42.793Z,1012.3
2017-08-11T00:28:51.698Z,1012.34
2017-08-11T00:30:00.915Z,1012.33
2017-08-11T00:31:09.815Z,1012.35
2017-08-11T00:32:18.718Z,1012.26
2017-08-11T00:33:27.941Z,1012.17
2017-08-11T00:34:37.167Z,1012.07
2017-08-11T00:35:46.102Z,1011.94
2017-08-11T00:36:55.009Z,1011.81
2017-08-11T00:38:04.231Z,1011.82
2017-08-11T00:39:13.143Z,1011.74
2017-08-11T00:40:22.044Z,1011.69
2017-08-11T00:41:30.970Z,1011.7
2017-08-11T00:42:39.906Z,1011.58
2017-08-11T00:43:48.810Z,1011.63
2017-08-11T00:44:58.032Z,1011.57
2017-08-11T00:46:06.942Z,1011.65
2017-08-11T00:47:16.166Z,1011.61
2017-08-11T00:48:25.398Z,1011.74
2017-08-11T00:49:34.296Z,1011.63
2017-08-11T00:50:43.207Z,1011.67
2017-08-11T00:51:52.101Z,1011.53
2017-08-11T00:53:01.007Z,1011.44
2017-08-11T00:54:09.917Z,1011.43
2017-08-11T00:55:19.086Z,1011.57
2017-08-11T00:56:28.251Z,1011.45
2017-08-11T00:57:37.106Z,1011.49
2017-08-11T00:58:45.960Z,1011.56
2017-08-11T00:59:54.819Z,1011.5
2017-08-11T01:01:03.984Z,1011.42
2017-08-11T01:02:12.837Z,1011.36
2017-08-11T01:03:22.008Z,1011.29
2017-08-11T01:04:31.185Z,1011.37
2017-08-11T01:05:40.039Z,1011.47
2017-08-11T01:06:48.887Z,1011.38
2017-08-11T01:07:57.739Z,1011.37
2017-08-11T01:09:06.592Z,1011.45
2017-08-11T01:10:15.447Z,1011.45
2017-08-11T01:11:24.301Z,1011.46
2017-08-11T01:12:33.465Z,1011.46
2017-08-11T01:13:42.318Z,1011.45
2017-08-11T01:14:51.162Z,1011.38
2017-08-11T01:16:00.336Z,1011.49
2017-08-11T01:17:09.183Z,1011.39
2017-08-11T01:18:18.035Z,1011.33
2017-08-11T01:19:26.889Z,1011.37
2017-08-11T01:20:35.739Z,1011.21
2017-08-11T01:21:44.584Z,1011.14
2017-08-11T01:22:53.435Z,1011.14
2017-08-11T01:24:02.287Z,1011.09
2017-08-11T01:25:11.149Z,1011.05
2017-08-11T01:26:19.999Z,1011.11
2017-08-11T01:27:28.852Z,1011.05
2017-08-11T01:28:37.703Z,1011.01
2017-08-11T01:29:46.554Z,1011.09
2017-08-11T01:30:55.409Z,1010.95
2017-08-11T01:32:04.258Z,1010.92
2017-08-11T01:33:13.107Z,1010.85
2017-08-11T01:34:22.289Z,1011.02
2017-08-11T01:35:31.136Z,1011.03
2017-08-11T01:36:39.990Z,1010.97
2017-08-11T01:37:48.848Z,1011.08
2017-08-11T01:38:57.696Z,1011
2017-08-11T01:40:06.548Z,1010.94
2017-08-11T01:41:15.396Z,1010.86
2017-08-11T01:42:24.244Z,1010.83
2017-08-11T01:43:33.099Z,1010.78
2017-08-11T01:44:41.952Z,1010.76
2017-08-11T01:45:50.799Z,1010.59
2017-08-11T01:46:59.655Z,1010.51
2017-08-11T01:48:08.512Z,1010.47
2017-08-11T01:49:17.357Z,1010.41
2017-08-11T01:50:26.209Z,1010.37
2017-08-11T01:51:35.378Z,1010.34
2017-08-11T01:52:44.549Z,1010.43
2017-08-11T01:53:53.395Z,1010.41
2017-08-11T01:55:02.253Z,1010.37
2017-08-11T01:56:11.107Z,1010.39
2017-08-11T01:57:19.955Z,1010.44
2017-08-11T01:58:29.130Z,1010.37
2017-08-11T01:59:37.981Z,1010.38
2017-08-11T02:00:46.841Z,1010.41
2017-08-11T02:01:55.690Z,1010.4
2017-08-11T02:03:04.545Z,1010.44
2017-08-11T02:04:13.401Z,1010.58
2017-08-11T02:05:22.570Z,1010.53
2017-08-11T02:06:31.422Z,1010.63
2017-08-11T02:07:40.582Z,1010.61
2017-08-11T02:08:49.432Z,1010.65
2017-08-11T02:09:58.288Z,1010.67
2017-08-11T02:11:07.137Z,1010.68
2017-08-11T02:12:15.992Z,1010.72
2017-08-11T02:13:24.842Z,1010.77
2017-08-11T02:14:33.688Z,1010.79
2017-08-11T02:15:42.539Z,1010.81
2017-08-11T02:16:51.390Z,1010.8
2017-08-11T02:18:00.234Z,1010.91
2017-08-11T02:19:09.089Z,1010.9
2017-08-11T02:20:18.258Z,1010.99
2017-08-11T02:21:27.137Z,1010.97
2017-08-11T02:22:36.306Z,1010.96
2017-08-11T02:23:45.168Z,1010.96
2017-08-11T02:24:54.030Z,1011
2017-08-11T02:26:02.883Z,1011.07
2017-08-11T02:27:11.729Z,1011.09
2017-08-11T02:28:20.582Z,1011.1
2017-08-11T02:29:29.427Z,1011.04
2017-08-11T02:30:38.275Z,1011.08
2017-08-11T02:31:47.126Z,1011.07
2017-08-11T02:32:55.985Z,1011.05
2017-08-11T02:34:04.837Z,1011.06
2017-08-11T02:35:13.693Z,1011
2017-08-11T02:36:22.873Z,1010.96
2017-08-11T02:37:32.045Z,1010.9
2017-08-11T02:38:40.903Z,1010.83
2017-08-11T02:39:49.755Z,1010.84
2017-08-11T02:40:58.609Z,1010.84
2017-08-11T02:42:07.781Z,1010.82
2017-08-11T02:43:16.640Z,1010.85
2017-08-11T02:44:25.510Z,1010.83
2017-08-11T02:45:34.360Z,1010.8
2017-08-11T02:46:43.207Z,1010.82
2017-08-11T02:47:52.065Z,1010.84
2017-08-11T02:49:01.232Z,1010.86
2017-08-11T02:50:10.090Z,1010.83
2017-08-11T02:51:18.939Z,1010.87
2017-08-11T02:52:27.793Z,1010.83
2017-08-11T02:53:36.640Z,1010.81
2017-08-11T02:54:45.494Z,1010.76
2017-08-11T02:55:54.336Z,1010.73
2017-08-11T02:57:03.188Z,1010.7
2017-08-11T02:58:12.042Z,1010.72
2017-08-11T02:59:20.884Z,1010.68
2017-08-11T03:00:29.755Z,1010.71
2017-08-11T03:01:38.619Z,1010.67
2017-08-11T03:02:47.463Z,1010.65
2017-08-11T03:03:56.639Z,1010.66
2017-08-11T03:05:05.486Z,1010.69
2017-08-11T03:06:14.344Z,1010.7
2017-08-11T03:07:23.191Z,1010.71
2017-08-11T03:08:32.042Z,1010.75
2017-08-11T03:09:40.897Z,1010.76
2017-08-11T03:10:50.064Z,1010.77
2017-08-11T03:11:58.913Z,1010.78
2017-08-11T03:13:07.763Z,1010.88
2017-08-11T03:14:16.607Z,1010.85
2017-08-11T03:15:25.462Z,1010.8
2017-08-11T03:16:34.323Z,1010.76
2017-08-11T03:17:43.173Z,1010.8
2017-08-11T03:18:52.019Z,1010.78
2017-08-11T03:20:00.866Z,1010.79
2017-08-11T03:21:09.719Z,1010.74
2017-08-11T03:22:18.574Z,1010.7
2017-08-11T03:23:27.437Z,1010.68
2017-08-11T03:24:36.282Z,1010.66
2017-08-11T03:25:45.144Z,1010.64
2017-08-11T03:26:53.993Z,1010.59
2017-08-11T03:28:02.849Z,1010.57
2017-08-11T03:29:11.705Z,1010.56
2017-08-11T03:30:20.563Z,1010.6
2017-08-11T03:31:29.440Z,1010.57
2017-08-11T03:32:38.284Z,1010.54
2017-08-11T03:33:47.133Z,1010.49
2017-08-11T03:34:56.308Z,1010.47
2017-08-11T03:36:05.157Z,1010.45
2017-08-11T03:37:14.007Z,1010.41
2017-08-11T03:38:22.856Z,1010.39
2017-08-11T03:39:31.707Z,1010.31
2017-08-11T03:40:40.568Z,1010.32
2017-08-11T03:41:49.733Z,1010.3
2017-08-11T03:42:58.598Z,1010.32
2017-08-11T03:44:07.445Z,1010.3
2017-08-11T03:45:16.294Z,1010.31
2017-08-11T03:46:25.144Z,1010.26
2017-08-11T03:47:33.995Z,1010.27
2017-08-11T03:48:42.847Z,1010.31
2017-08-11T03:49:51.695Z,1010.24
2017-08-11T03:51:00.554Z,1010.26
2017-08-11T03:52:09.406Z,1010.27
2017-08-11T03:53:18.252Z,1010.26
2017-08-11T03:54:27.104Z,1010.25
2017-08-11T03:55:35.958Z,1010.24
2017-08-11T03:56:44.812Z,1010.26
2017-08-11T03:57:53.662Z,1010.3
2017-08-11T03:59:02.838Z,1010.25
2017-08-11T04:00:11.681Z,1010.25
2017-08-11T04:01:20.533Z,1010.24
2017-08-11T04:02:29.379Z,1010.28
2017-08-11T04:03:38.236Z,1010.26
2017-08-11T04:04:47.089Z,1010.31
2017-08-11T04:05:55.942Z,1010.4
2017-08-11T04:07:04.789Z,1010.41
2017-08-11T04:08:13.648Z,1010.4
2017-08-11T04:09:22.499Z,1010.41
2017-08-11T04:10:31.375Z,1010.37
2017-08-11T04:11:40.226Z,1010.37
2017-08-11T04:12:49.088Z,1010.38
2017-08-11T04:13:57.933Z,1010.33
2017-08-11T04:15:07.104Z,1010.36
2017-08-11T04:16:15.957Z,1010.31
2017-08-11T04:17:24.813Z,1010.29
2017-08-11T04:18:33.669Z,1010.31
2017-08-11T04:19:42.512Z,1010.24
2017-08-11T04:20:51.687Z,1010.21
2017-08-11T04:22:00.557Z,1010.24
2017-08-11T04:23:09.429Z,1010.23
2017-08-11T04:24:18.271Z,1010.22
2017-08-11T04:25:27.124Z,1010.25
2017-08-11T04:26:36.296Z,1010.28
2017-08-11T04:27:45.144Z,1010.25
2017-08-11T04:28:53.996Z,1010.21
2017-08-11T04:30:02.850Z,1010.21
2017-08-11T04:31:11.698Z,1010.23
2017-08-11T04:32:20.546Z,1010.25
2017-08-11T04:33:29.392Z,1010.28
2017-08-11T04:34:38.246Z,1010.3
2017-08-11T04:35:47.097Z,1010.24
2017-08-11T04:36:55.951Z,1010.24
2017-08-11T04:38:04.799Z,1010.23
2017-08-11T04:39:13.974Z,1010.2
2017-08-11T04:40:22.818Z,1010.19
2017-08-11T04:41:31.990Z,1010.16
2017-08-11T04:42:40.846Z,1010.16
2017-08-11T04:43:49.698Z,1010.15
2017-08-11T04:44:58.550Z,1010.18
2017-08-11T04:46:07.718Z,1010.13
2017-08-11T04:47:16.566Z,1010.11
2017-08-11T04:48:25.420Z,1010.06
2017-08-11T04:49:34.286Z,1010.02
2017-08-11T04:50:43.145Z,1010.02
2017-08-11T04:51:51.992Z,1010.05
2017-08-11T04:53:00.840Z,1010.04
2017-08-11T04:54:10.011Z,1010.06
2017-08-11T04:55:18.867Z,1010.04
2017-08-11T04:56:27.719Z,1010.02
2017-08-11T04:57:36.564Z,1010.04
2017-08-11T04:58:45.417Z,1010.05
2017-08-11T04:59:54.267Z,1010
2017-08-11T05:01:03.119Z,1009.99
2017-08-11T05:02:11.970Z,1009.94
2017-08-11T05:03:20.821Z,1009.97
2017-08-11T05:04:29.680Z,1009.97
2017-08-11T05:05:38.531Z,1010.04
2017-08-11T05:06:47.384Z,1010.01
2017-08-11T05:07:56.549Z,1010.06
2017-08-11T05:09:05.718Z,1010.07
2017-08-11T05:10:14.563Z,1010.07
2017-08-11T05:11:23.411Z,1010.03
2017-08-11T05:12:32.262Z,1010.05
2017-08-11T05:13:41.123Z,1010.05
2017-08-11T05:14:49.968Z,1010.07
2017-08-11T05:15:58.821Z,1010.07
2017-08-11T05:17:07.668Z,1010.07
2017-08-11T05:18:16.516Z,1010.03
2017-08-11T05:19:25.368Z,1010.03
2017-08-11T05:20:34.562Z,1010.02
2017-08-11T05:21:43.414Z,1010.06
2017-08-11T05:22:52.592Z,1010.04
2017-08-11T05:24:01.436Z,1010.06
2017-08-11T05:25:10.281Z,1010.01
2017-08-11T05:26:19.139Z,1009.96
2017-08-11T05:27:27.988Z,1009.92
2017-08-11T05:28:37.157Z,1009.93
2017-08-11T05:29:46.010Z,1009.96
2017-08-11T05:30:54.861Z,1009.98
2017-08-11T05:32:03.711Z,1010
2017-08-11T05:33:12.564Z,1010
2017-08-11T05:34:21.428Z,1010.01
2017-08-11T05:35:30.281Z,1009.99
2017-08-11T05:36:39.137Z,1009.98
2017-08-11T05:37:47.983Z,1009.97
2017-08-11T05:38:56.841Z,1009.95
2017-08-11T05:40:05.698Z,1009.93
2017-08-11T05:41:14.549Z,1009.9
2017-08-11T05:42:23.715Z,1009.84
2017-08-11T05:43:32.882Z,1009.81
2017-08-11T05:44:42.047Z,1009.78
2017-08-11T05:45:50.898Z,1009.76
2017-08-11T05:46:59.749Z,1009.71
2017-08-11T05:48:08.601Z,1009.7
2017-08-11T05:49:17.453Z,1009.65
2017-08-11T05:50:26.306Z,1009.65
2017-08-11T05:51:35.152Z,1009.66
2017-08-11T05:52:44.005Z,1009.7
2017-08-11T05:53:52.856Z,1009.72
2017-08-11T05:55:01.708Z,1009.72
2017-08-11T05:56:10.563Z,1009.71
2017-08-11T05:57:19.800Z,1009.69
2017-08-11T05:58:28.649Z,1009.71
2017-08-11T05:59:37.501Z,1009.73
2017-08-11T06:00:46.352Z,1009.73
2017-08-11T06:01:55.214Z,1009.74
2017-08-11T06:03:04.064Z,1009.76
2017-08-11T06:04:12.924Z,1009.81
2017-08-11T06:05:21.774Z,1009.87
2017-08-11T06:06:30.666Z,1009.88
2017-08-11T06:07:39.834Z,1009.88
2017-08-11T06:08:48.694Z,1009.85
2017-08-11T06:09:57.542Z,1009.88
2017-08-11T06:11:06.391Z,1009.86
2017-08-11T06:12:15.243Z,1009.85
2017-08-11T06:13:24.093Z,1009.73
2017-08-11T06:14:32.938Z,1009.76
2017-08-11T06:15:42.117Z,1009.78
2017-08-11T06:16:50.971Z,1009.76
2017-08-11T06:17:59.824Z,1009.73
2017-08-11T06:19:08.674Z,1009.71
2017-08-11T06:20:17.528Z,1009.67
2017-08-11T06:21:26.379Z,1009.65
2017-08-11T06:22:35.231Z,1009.62
2017-08-11T06:23:44.088Z,1009.63
2017-08-11T06:24:53.252Z,1009.65
2017-08-11T06:26:02.426Z,1009.66
2017-08-11T06:27:11.293Z,1009.64
2017-08-11T06:28:20.145Z,1009.68
2017-08-11T06:29:28.998Z,1009.7
2017-08-11T06:30:37.845Z,1009.7
2017-08-11T06:31:47.013Z,1009.7
2017-08-11T06:32:55.865Z,1009.75
2017-08-11T06:34:05.040Z,1009.8
2017-08-11T06:35:13.889Z,1009.8
2017-08-11T06:36:22.746Z,1009.84
2017-08-11T06:37:31.591Z,1009.87
2017-08-11T06:38:40.447Z,1009.91
2017-08-11T06:39:49.300Z,1010.01
2017-08-11T06:40:58.150Z,1010.07
2017-08-11T06:42:07.002Z,1010.1
2017-08-11T06:43:15.854Z,1010.14
2017-08-11T06:44:24.707Z,1010.19
2017-08-11T06:45:33.559Z,1010.26
2017-08-11T06:46:42.411Z,1010.29
2017-08-11T06:47:51.266Z,1010.27
2017-08-11T06:49:00.112Z,1010.25
2017-08-11T06:50:08.967Z,1010.25
2017-08-11T06:51:17.828Z,1010.24
2017-08-11T06:52:26.996Z,1010.21
2017-08-11T06:53:35.848Z,1010.16
2017-08-11T06:54:44.701Z,1010.09
2017-08-11T06:55:53.870Z,1010.09
2017-08-11T06:57:02.717Z,1010.08
2017-08-11T06:58:11.569Z,1010.11
2017-08-11T06:59:20.423Z,1010.12
2017-08-11T07:00:29.269Z,1010.14
2017-08-11T07:01:38.132Z,1010.16
2017-08-11T07:02:46.976Z,1010.15
2017-08-11T07:03:56.148Z,1010.18
2017-08-11T07:05:05.012Z,1010.22
2017-08-11T07:06:13.866Z,1010.16
2017-08-11T07:07:22.725Z,1010.18
2017-08-11T07:08:31.575Z,1010.13
2017-08-11T07:09:40.438Z,1010.1
2017-08-11T07:10:49.285Z,1010.1
2017-08-11T07:11:58.452Z,1010.13
2017-08-11T07:13:07.304Z,1010.12
2017-08-11T07:14:16.162Z,1010.14
2017-08-11T07:15:25.017Z,1010.12
2017-08-11T07:16:33.875Z,1010.07
2017-08-11T07:17:42.724Z,1010.04
2017-08-11T07:18:51.586Z,1010.04
2017-08-11T07:20:00.441Z,1010.02
2017-08-11T07:21:09.306Z,1009.98
2017-08-11T07:22:18.157Z,1009.97
2017-08-11T07:23:27.005Z,1009.92
2017-08-11T07:24:35.860Z,1009.91
2017-08-11T07:25:44.718Z,1009.9
2017-08-11T07:26:53.563Z,1009.84
2017-08-11T07:28:02.423Z,1009.81
2017-08-11T07:29:11.278Z,1009.86
2017-08-11T07:30:20.136Z,1009.84
2017-08-11T07:31:28.993Z,1009.89
2017-08-11T07:32:38.157Z,1009.89
2017-08-11T07:33:47.006Z,1009.87
2017-08-11T07:34:55.853Z,1009.8
2017-08-11T07:36:04.706Z,1009.78
2017-08-11T07:37:13.864Z,1009.77
2017-08-11T07:38:23.042Z,1009.75
2017-08-11T07:39:31.900Z,1009.77
2017-08-11T07:40:40.743Z,1009.75
2017-08-11T07:41:49.593Z,1009.75
2017-08-11T07:42:58.444Z,1009.73
2017-08-11T07:44:07.621Z,1009.74
2017-08-11T07:45:16.475Z,1009.74
2017-08-11T07:46:25.324Z,1009.79
2017-08-11T07:47:34.175Z,1009.8
2017-08-11T07:48:43.022Z,1009.79
2017-08-11T07:49:51.873Z,1009.87
2017-08-11T07:51:00.730Z,1009.84
2017-08-11T07:52:09.589Z,1009.9
2017-08-11T07:53:18.447Z,1009.93
2017-08-11T07:54:27.298Z,1009.98
2017-08-11T07:55:36.155Z,1010.06
2017-08-11T07:56:45.003Z,1010.1
2017-08-11T07:57:53.855Z,1010.1
2017-08-11T07:59:02.707Z,1010.11
2017-08-11T08:00:11.554Z,1010.09
2017-08-11T08:01:20.405Z,1010.11
2017-08-11T08:02:29.258Z,1010.22
2017-08-11T08:03:38.106Z,1010.24
2017-08-11T08:04:46.957Z,1010.2
2017-08-11T08:05:55.813Z,1010.2
2017-08-11T08:07:05.294Z,1010.25
2017-08-11T08:08:14.146Z,1010.21
2017-08-11T08:09:22.997Z,1010.26
2017-08-11T08:10:31.857Z,1010.25
2017-08-11T08:11:40.709Z,1010.3
2017-08-11T08:12:49.563Z,1010.36
2017-08-11T08:13:58.414Z,1010.37
2017-08-11T08:15:07.265Z,1010.43
2017-08-11T08:16:16.111Z,1010.47
2017-08-11T08:17:24.963Z,1010.48
2017-08-11T08:18:33.818Z,1010.52
2017-08-11T08:19:42.670Z,1010.55
2017-08-11T08:20:51.520Z,1010.54
2017-08-11T08:22:00.371Z,1010.56
2017-08-11T08:23:09.228Z,1010.6
2017-08-11T08:24:18.391Z,1010.59
2017-08-11T08:25:27.240Z,1010.6
2017-08-11T08:26:36.093Z,1010.61
2017-08-11T08:27:44.945Z,1010.63
2017-08-11T08:28:53.796Z,1010.6
2017-08-11T08:30:02.971Z,1010.59
2017-08-11T08:31:11.835Z,1010.59
2017-08-11T08:32:20.997Z,1010.59
2017-08-11T08:33:29.852Z,1010.56
2017-08-11T08:34:38.697Z,1010.62
2017-08-11T08:35:47.549Z,1010.63
2017-08-11T08:36:56.403Z,1010.63
2017-08-11T08:38:05.254Z,1010.66
2017-08-11T08:39:14.104Z,1010.65
2017-08-11T08:40:22.960Z,1010.68
2017-08-11T08:41:31.812Z,1010.71
2017-08-11T08:42:40.665Z,1010.78
2017-08-11T08:43:49.513Z,1010.77
2017-08-11T08:44:58.371Z,1010.78
2017-08-11T08:46:07.850Z,1010.8
2017-08-11T08:47:16.713Z,1010.8
2017-08-11T08:48:25.559Z,1010.79
2017-08-11T08:49:34.410Z,1010.82
2017-08-11T08:50:43.577Z,1010.77
2017-08-11T08:51:52.438Z,1010.75
2017-08-11T08:53:01.311Z,1010.79
2017-08-11T08:54:10.156Z,1010.73
2017-08-11T08:55:19.004Z,1010.78
2017-08-11T08:56:27.849Z,1010.76
2017-08-11T08:57:37.016Z,1010.75
2017-08-11T08:58:45.866Z,1010.77
2017-08-11T08:59:54.715Z,1010.76
2017-08-11T09:01:03.564Z,1010.75
2017-08-11T09:02:12.414Z,1010.79
2017-08-11T09:03:21.266Z,1010.78
2017-08-11T09:04:30.119Z,1010.77
2017-08-11T09:05:38.972Z,1010.78
2017-08-11T09:06:47.849Z,1010.81
2017-08-11T09:07:56.706Z,1010.87
2017-08-11T09:09:05.874Z,1010.93
2017-08-11T09:10:14.727Z,1011.03
2017-08-11T09:11:23.580Z,1011.05
2017-08-11T09:12:32.433Z,1011.1
2017-08-11T09:13:41.285Z,1011.15
2017-08-11T09:14:50.171Z,1011.22
2017-08-11T09:15:59.015Z,1011.23
2017-08-11T09:17:07.862Z,1011.22
2017-08-11T09:18:16.715Z,1011.25
2017-08-11T09:19:25.574Z,1011.25
2017-08-11T09:20:34.430Z,1011.2
2017-08-11T09:21:43.284Z,1011.13
2017-08-11T09:22:52.140Z,1011.12
2017-08-11T09:24:00.989Z,1011.12
2017-08-11T09:25:09.844Z,1011.1
2017-08-11T09:26:18.689Z,1011.07
2017-08-11T09:27:27.536Z,1011.07
2017-08-11T09:28:36.388Z,1011.09
2017-08-11T09:29:45.242Z,1011.06
2017-08-11T09:30:54.096Z,1011.03
2017-08-11T09:32:02.940Z,1011.11
2017-08-11T09:33:11.790Z,1011.16
2017-08-11T09:34:20.678Z,1011.17
2017-08-11T09:35:29.532Z,1011.19
2017-08-11T09:36:38.388Z,1011.2
2017-08-11T09:37:47.239Z,1011.21
2017-08-11T09:38:56.421Z,1011.19
2017-08-11T09:40:05.273Z,1011.18
2017-08-11T09:41:14.125Z,1011.19
2017-08-11T09:42:23.305Z,1011.22
2017-08-11T09:43:32.471Z,1011.24
2017-08-11T09:44:41.323Z,1011.23
2017-08-11T09:45:50.491Z,1011.24
2017-08-11T09:46:59.341Z,1011.23
2017-08-11T09:48:08.190Z,1011.25
2017-08-11T09:49:17.050Z,1011.26
2017-08-11T09:50:25.898Z,1011.25
2017-08-11T09:51:34.746Z,1011.23
2017-08-11T09:52:43.598Z,1011.26
2017-08-11T09:53:52.464Z,1011.25
2017-08-11T09:55:01.315Z,1011.27
2017-08-11T09:56:10.166Z,1011.28
2017-08-11T09:57:19.014Z,1011.36
2017-08-11T09:58:27.865Z,1011.34
2017-08-11T09:59:36.720Z,1011.37
2017-08-11T10:00:45.572Z,1011.39
2017-08-11T10:01:54.417Z,1011.46
2017-08-11T10:03:03.272Z,1011.4
2017-08-11T10:04:12.123Z,1011.4
2017-08-11T10:05:21.318Z,1011.42
2017-08-11T10:06:30.169Z,1011.37
2017-08-11T10:07:39.018Z,1011.41
2017-08-11T10:08:48.180Z,1011.45
2017-08-11T10:09:57.030Z,1011.47
2017-08-11T10:11:05.876Z,1011.43
2017-08-11T10:12:14.727Z,1011.43
2017-08-11T10:13:23.579Z,1011.4
2017-08-11T10:14:32.436Z,1011.4
2017-08-11T10:15:41.291Z,1011.36
2017-08-11T10:16:50.154Z,1011.32
2017-08-11T10:17:59.000Z,1011.3
2017-08-11T10:19:07.852Z,1011.27
2017-08-11T10:20:16.705Z,1011.2
2017-08-11T10:21:25.552Z,1011.22
2017-08-11T10:22:34.714Z,1011.12
2017-08-11T10:23:43.565Z,1011.09
2017-08-11T10:24:52.419Z,1010.98
2017-08-11T10:26:01.283Z,1010.94
2017-08-11T10:27:10.135Z,1010.87
2017-08-11T10:28:19.304Z,1010.83
2017-08-11T10:29:28.150Z,1010.75
2017-08-11T10:30:37.003Z,1010.67
2017-08-11T10:31:45.850Z,1010.58
2017-08-11T10:32:54.701Z,1010.52
2017-08-11T10:34:03.555Z,1010.56
2017-08-11T10:35:12.725Z,1010.53
2017-08-11T10:36:21.572Z,1010.5
2017-08-11T10:37:30.424Z,1010.44
2017-08-11T10:38:39.271Z,1010.33
2017-08-11T10:39:48.120Z,1010.16
2017-08-11T10:40:56.970Z,1010.09
2017-08-11T10:42:05.830Z,1010.07
2017-08-11T10:43:14.681Z,1010.17
2017-08-11T10:44:23.549Z,1010.21
2017-08-11T10:45:32.404Z,1010.21
2017-08-11T10:46:41.259Z,1010.16
2017-08-11T10:47:50.108Z,1010.13
2017-08-11T10:48:58.964Z,1010.17
2017-08-11T10:50:07.816Z,1010.2
2017-08-11T10:51:16.662Z,1010.21
2017-08-11T10:52:25.522Z,1010.17
2017-08-11T10:53:34.372Z,1010.15
2017-08-11T10:54:43.225Z,1010.15
2017-08-11T10:55:52.079Z,1010.14
2017-08-11T10:57:00.930Z,1010.1
2017-08-11T10:58:09.785Z,1010.05
2017-08-11T10:59:18.627Z,1010
2017-08-11T11:00:27.486Z,1010.01
2017-08-11T11:01:36.965Z,1010.03
2017-08-11T11:02:45.820Z,1009.98
2017-08-11T11:03:54.676Z,1010.06
2017-08-11T11:05:03.553Z,1010.03
2017-08-11T11:06:12.406Z,1010.02
2017-08-11T11:07:21.259Z,1010.01
2017-08-11T11:08:30.109Z,1009.94
2017-08-11T11:09:38.954Z,1009.88
2017-08-11T11:10:47.800Z,1009.75
2017-08-11T11:11:56.666Z,1009.71
2017-08-11T11:13:05.519Z,1009.69
2017-08-11T11:14:14.370Z,1009.64
2017-08-11T11:15:23.223Z,1009.57
2017-08-11T11:16:32.074Z,1009.48
2017-08-11T11:17:40.920Z,1009.34
2017-08-11T11:18:49.770Z,1009.26
2017-08-11T11:19:59.255Z,1009.12
2017-08-11T11:21:08.101Z,1009.07
2017-08-11T11:22:16.952Z,1009.06
2017-08-11T11:23:25.797Z,1009.1
2017-08-11T11:24:34.656Z,1009.17
2017-08-11T11:25:43.505Z,1009.2
2017-08-11T11:26:52.349Z,1009.21
2017-08-11T11:28:01.199Z,1009.22
2017-08-11T11:29:10.048Z,1009.29
2017-08-11T11:30:18.894Z,1009.37
2017-08-11T11:31:27.746Z,1009.43
2017-08-11T11:32:36.920Z,1009.46
2017-08-11T11:33:45.766Z,1009.52
2017-08-11T11:34:54.621Z,1009.59
2017-08-11T11:36:03.475Z,1009.65
2017-08-11T11:37:12.318Z,1009.66
2017-08-11T11:38:21.168Z,1009.64
2017-08-11T11:39:30.014Z,1009.72
2017-08-11T11:40:38.866Z,1009.74
2017-08-11T11:41:48.067Z,1009.79
2017-08-11T11:42:57.236Z,1009.83
2017-08-11T11:44:06.402Z,1009.84
2017-08-11T11:45:15.259Z,1009.89
2017-08-11T11:46:24.113Z,1009.99
2017-08-11T11:47:32.973Z,1010.14
2017-08-11T11:48:41.820Z,1010.27
2017-08-11T11:49:50.668Z,1010.24
2017-08-11T11:50:59.519Z,1010.16
2017-08-11T11:52:08.369Z,1010.16
2017-08-11T11:53:17.231Z,1010.24
2017-08-11T11:54:26.080Z,1010.34
2017-08-11T11:55:34.930Z,1010.41
2017-08-11T11:56:43.782Z,1010.51
2017-08-11T11:57:52.632Z,1010.54
2017-08-11T11:59:01.522Z,1010.68
2017-08-11T12:00:10.376Z,1010.75
2017-08-11T12:01:19.235Z,1010.79
2017-08-11T12:02:28.084Z,1010.85
2017-08-11T12:03:36.943Z,1010.89
2017-08-11T12:04:45.799Z,1010.9
2017-08-11T12:05:54.957Z,1010.95
2017-08-11T12:07:03.808Z,1010.92
2017-08-11T12:08:12.659Z,1010.88
2017-08-11T12:09:21.517Z,1010.9
2017-08-11T12:10:30.363Z,1010.93
2017-08-11T12:11:39.211Z,1010.98
2017-08-11T12:12:48.060Z,1011.03
2017-08-11T12:13:56.915Z,1010.97
2017-08-11T12:15:05.762Z,1010.87
2017-08-11T12:16:14.616Z,1010.81
2017-08-11T12:17:23.466Z,1010.87
2017-08-11T12:18:32.640Z,1010.98
2017-08-11T12:19:41.493Z,1011.04
2017-08-11T12:20:50.358Z,1011.13
2017-08-11T12:21:59.210Z,1011.19
2017-08-11T12:23:08.059Z,1011.2
2017-08-11T12:24:16.916Z,1011.28
2017-08-11T12:25:25.764Z,1011.34
2017-08-11T12:26:34.614Z,1011.3
2017-08-11T12:27:43.463Z,1011.37
2017-08-11T12:28:52.313Z,1011.38
2017-08-11T12:30:01.189Z,1011.29
2017-08-11T12:31:10.040Z,1011.3
2017-08-11T12:32:18.894Z,1011.36
2017-08-11T12:33:27.748Z,1011.33
2017-08-11T12:34:36.905Z,1011.4
2017-08-11T12:35:45.755Z,1011.42
2017-08-11T12:36:54.603Z,1011.42
2017-08-11T12:38:03.465Z,1011.41
2017-08-11T12:39:12.314Z,1011.44
2017-08-11T12:40:21.164Z,1011.49
2017-08-11T12:41:30.014Z,1011.45
2017-08-11T12:42:39.190Z,1011.51
2017-08-11T12:43:48.040Z,1011.5
2017-08-11T12:44:56.891Z,1011.49
2017-08-11T12:46:05.746Z,1011.54
2017-08-11T12:47:14.598Z,1011.57
2017-08-11T12:48:23.452Z,1011.53
2017-08-11T12:49:32.306Z,1011.5
2017-08-11T12:50:41.160Z,1011.53
2017-08-11T12:51:50.652Z,1011.5
2017-08-11T12:52:59.817Z,1011.47
2017-08-11T12:54:08.673Z,1011.46
2017-08-11T12:55:17.840Z,1011.42
2017-08-11T12:56:26.694Z,1011.33
2017-08-11T12:57:35.540Z,1011.32
2017-08-11T12:58:44.393Z,1011.35
2017-08-11T12:59:53.568Z,1011.31
2017-08-11T13:01:02.733Z,1011.32
2017-08-11T13:02:11.587Z,1011.28
2017-08-11T13:03:20.439Z,1011.22
2017-08-11T13:04:29.290Z,1011.18
2017-08-11T13:05:38.141Z,1011.15
2017-08-11T13:06:46.989Z,1011.04
2017-08-11T13:07:56.225Z,1011
2017-08-11T13:09:05.085Z,1011.01
2017-08-11T13:10:13.931Z,1010.99
2017-08-11T13:11:22.787Z,1010.99
2017-08-11T13:12:31.640Z,1010.89
2017-08-11T13:13:40.488Z,1010.9
2017-08-11T13:14:49.347Z,1010.85
2017-08-11T13:15:58.193Z,1010.84
2017-08-11T13:17:07.044Z,1010.78
2017-08-11T13:18:15.891Z,1010.79
2017-08-11T13:19:24.745Z,1010.72
2017-08-11T13:20:33.595Z,1010.65
2017-08-11T13:21:42.445Z,1010.55
2017-08-11T13:22:51.301Z,1010.58
2017-08-11T13:24:00.490Z,1010.5
2017-08-11T13:25:09.355Z,1010.48
2017-08-11T13:26:18.527Z,1010.49
2017-08-11T13:27:27.379Z,1010.47
2017-08-11T13:28:36.228Z,1010.29
2017-08-11T13:29:45.406Z,1010.22
2017-08-11T13:30:54.264Z,1010.07
2017-08-11T13:32:03.427Z,1009.95
2017-08-11T13:33:12.601Z,1009.93
2017-08-11T13:34:21.451Z,1009.92
2017-08-11T13:35:30.299Z,1009.87
2017-08-11T13:36:39.146Z,1009.79
2017-08-11T13:37:48.007Z,1009.76
2017-08-11T13:38:56.858Z,1009.77
2017-08-11T13:40:05.711Z,1009.7
2017-08-11T13:41:14.569Z,1009.69
2017-08-11T13:42:23.416Z,1009.68
2017-08-11T13:43:32.277Z,1009.6
2017-08-11T13:44:41.439Z,1009.6
2017-08-11T13:45:50.289Z,1009.59
2017-08-11T13:46:59.145Z,1009.64
2017-08-11T13:48:07.996Z,1009.69
2017-08-11T13:49:16.853Z,1009.68
2017-08-11T13:50:26.014Z,1009.65
2017-08-11T13:51:34.865Z,1009.61
2017-08-11T13:52:43.711Z,1009.56
2017-08-11T13:53:52.567Z,1009.46
2017-08-11T13:55:01.420Z,1009.43
2017-08-11T13:56:10.275Z,1009.43